sensor_id;sensor_type;location;lat;lon;timestamp;P1;durP1;ratioP1;P2;durP2;ratioP2
67696;SDS011;54486;51.442;6.778;2023-03-01T14:19:30;12.68;;;6.57;;
67696;SDS011;54486;51.442;6.778;2023-03-01T14:24:55;12.82;;;6.65;;
67696;SDS011;54486;51.442;6.778;2023-03-01T14:27:35;12.80;;;6.97;;
67696;SDS011;54486;51.442;6.778;2023-03-01T14:30:25;11.70;;;5.93;;
67696;SDS011;54486;51.442;6.778;2023-03-01T14:32:59;12.68;;;6.80;;
67696;SDS011;54486;51.442;6.778;2023-03-01T14:35:29;13.10;;;7.10;;
67696;SDS011;54486;51.442;6.778;2023-03-01T14:37:58;12.07;;;6.57;;
67696;SDS011;54486;51.442;6.778;2023-03-01T14:40:35;12.43;;;6.68;;
67696;SDS011;54486;51.442;6.778;2023-03-01T14:43:08;13.55;;;7.32;;
67696;SDS011;54486;51.442;6.778;2023-03-01T14:45:38;13.95;;;7.32;;
67696;SDS011;54486;51.442;6.778;2023-03-01T14:48:06;12.48;;;7.50;;
67696;SDS011;54486;51.442;6.778;2023-03-01T14:50:34;13.17;;;7.87;;
67696;SDS011;54486;51.442;6.778;2023-03-01T14:53:06;12.55;;;6.95;;
67696;SDS011;54486;51.442;6.778;2023-03-01T14:55:52;12.98;;;7.30;;
67696;SDS011;54486;51.442;6.778;2023-03-01T14:58:22;12.35;;;7.25;;
67696;SDS011;54486;51.442;6.778;2023-03-01T15:00:52;12.80;;;7.13;;
67696;SDS011;54486;51.442;6.778;2023-03-01T15:03:31;12.63;;;7.37;;
67696;SDS011;54486;51.442;6.778;2023-03-01T15:06:02;13.80;;;8.52;;
67696;SDS011;54486;51.442;6.778;2023-03-01T15:08:31;14.73;;;7.50;;
67696;SDS011;54486;51.442;6.778;2023-03-01T15:11:15;13.43;;;8.07;;
67696;SDS011;54486;51.442;6.778;2023-03-01T15:13:48;13.63;;;8.05;;
67696;SDS011;54486;51.442;6.778;2023-03-01T15:16:29;13.52;;;7.95;;
67696;SDS011;54486;51.442;6.778;2023-03-01T15:21:35;13.95;;;7.80;;
67696;SDS011;54486;51.442;6.778;2023-03-01T15:26:57;13.18;;;7.35;;
67696;SDS011;54486;51.442;6.778;2023-03-01T15:29:33;13.52;;;7.50;;
67696;SDS011;54486;51.442;6.778;2023-03-01T15:35:32;12.40;;;7.05;;
67696;SDS011;54486;51.442;6.778;2023-03-01T15:41:02;12.10;;;6.47;;
67696;SDS011;54486;51.442;6.778;2023-03-01T15:43:38;12.05;;;6.47;;
67696;SDS011;54486;51.442;6.778;2023-03-01T15:46:17;11.90;;;6.65;;
67696;SDS011;54486;51.442;6.778;2023-03-01T15:48:49;11.85;;;6.70;;
67696;SDS011;54486;51.442;6.778;2023-03-01T15:51:22;12.73;;;7.05;;
67696;SDS011;54486;51.442;6.778;2023-03-01T15:53:58;14.95;;;8.40;;
67696;SDS011;54486;51.442;6.778;2023-03-01T15:56:28;13.52;;;7.35;;
67696;SDS011;54486;51.442;6.778;2023-03-01T15:58:58;13.77;;;8.07;;
67696;SDS011;54486;51.442;6.778;2023-03-01T16:01:27;13.55;;;7.43;;
67696;SDS011;54486;51.442;6.778;2023-03-01T16:03:58;12.85;;;7.63;;
67696;SDS011;54486;51.442;6.778;2023-03-01T16:06:25;14.25;;;8.40;;
67696;SDS011;54486;51.442;6.778;2023-03-01T16:08:52;13.55;;;7.97;;
67696;SDS011;54486;51.442;6.778;2023-03-01T16:11:19;13.73;;;7.85;;
67696;SDS011;54486;51.442;6.778;2023-03-01T16:13:47;14.00;;;7.38;;
67696;SDS011;54486;51.442;6.778;2023-03-01T16:16:15;12.57;;;7.07;;
67696;SDS011;54486;51.442;6.778;2023-03-01T16:18:44;12.50;;;7.13;;
67696;SDS011;54486;51.442;6.778;2023-03-01T16:21:20;12.43;;;6.60;;
67696;SDS011;54486;51.442;6.778;2023-03-01T16:23:49;12.70;;;7.25;;
67696;SDS011;54486;51.442;6.778;2023-03-01T16:26:17;12.97;;;7.17;;
67696;SDS011;54486;51.442;6.778;2023-03-01T16:28:47;12.77;;;7.27;;
67696;SDS011;54486;51.442;6.778;2023-03-01T16:31:16;12.98;;;7.15;;
67696;SDS011;54486;51.442;6.778;2023-03-01T16:33:47;12.23;;;7.20;;
67696;SDS011;54486;51.442;6.778;2023-03-01T16:36:19;12.50;;;6.65;;
67696;SDS011;54486;51.442;6.778;2023-03-01T16:38:49;13.90;;;7.85;;
67696;SDS011;54486;51.442;6.778;2023-03-01T16:41:18;13.90;;;7.78;;
67696;SDS011;54486;51.442;6.778;2023-03-01T16:43:47;11.93;;;6.72;;
67696;SDS011;54486;51.442;6.778;2023-03-01T16:46:19;12.53;;;6.97;;
67696;SDS011;54486;51.442;6.778;2023-03-01T16:48:48;11.85;;;7.13;;
67696;SDS011;54486;51.442;6.778;2023-03-01T16:51:16;12.57;;;6.90;;
67696;SDS011;54486;51.442;6.778;2023-03-01T16:53:44;14.98;;;7.15;;
67696;SDS011;54486;51.442;6.778;2023-03-01T16:56:13;12.32;;;6.63;;
67696;SDS011;54486;51.442;6.778;2023-03-01T16:58:40;13.00;;;7.10;;
67696;SDS011;54486;51.442;6.778;2023-03-01T17:01:13;13.07;;;7.00;;
67696;SDS011;54486;51.442;6.778;2023-03-01T17:03:43;14.02;;;7.97;;
67696;SDS011;54486;51.442;6.778;2023-03-01T17:06:14;13.25;;;7.57;;
67696;SDS011;54486;51.442;6.778;2023-03-01T17:08:44;12.93;;;6.78;;
67696;SDS011;54486;51.442;6.778;2023-03-01T17:11:18;12.75;;;7.13;;
67696;SDS011;54486;51.442;6.778;2023-03-01T17:13:46;12.80;;;7.30;;
67696;SDS011;54486;51.442;6.778;2023-03-01T17:16:15;12.60;;;6.90;;
67696;SDS011;54486;51.442;6.778;2023-03-01T17:18:44;14.53;;;7.37;;
67696;SDS011;54486;51.442;6.778;2023-03-01T17:21:12;11.80;;;6.28;;
67696;SDS011;54486;51.442;6.778;2023-03-01T17:23:41;13.97;;;7.10;;
67696;SDS011;54486;51.442;6.778;2023-03-01T17:26:09;12.93;;;7.20;;
67696;SDS011;54486;51.442;6.778;2023-03-01T17:28:37;12.60;;;7.05;;
67696;SDS011;54486;51.442;6.778;2023-03-01T17:31:04;12.45;;;7.07;;
67696;SDS011;54486;51.442;6.778;2023-03-01T17:33:33;11.50;;;6.25;;
67696;SDS011;54486;51.442;6.778;2023-03-01T17:36:01;14.20;;;7.38;;
67696;SDS011;54486;51.442;6.778;2023-03-01T17:38:29;13.52;;;7.22;;
67696;SDS011;54486;51.442;6.778;2023-03-01T17:40:59;12.63;;;7.03;;
67696;SDS011;54486;51.442;6.778;2023-03-01T17:43:28;13.02;;;7.43;;
67696;SDS011;54486;51.442;6.778;2023-03-01T17:45:56;12.93;;;6.97;;
67696;SDS011;54486;51.442;6.778;2023-03-01T17:48:23;12.55;;;6.78;;
67696;SDS011;54486;51.442;6.778;2023-03-01T17:50:51;13.82;;;6.60;;
67696;SDS011;54486;51.442;6.778;2023-03-01T17:53:19;13.68;;;7.00;;
67696;SDS011;54486;51.442;6.778;2023-03-01T17:55:46;12.23;;;7.20;;
67696;SDS011;54486;51.442;6.778;2023-03-01T17:58:19;14.02;;;7.22;;
67696;SDS011;54486;51.442;6.778;2023-03-01T18:00:49;13.25;;;6.85;;
67696;SDS011;54486;51.442;6.778;2023-03-01T18:03:17;12.65;;;6.70;;
67696;SDS011;54486;51.442;6.778;2023-03-01T18:05:44;13.65;;;7.50;;
67696;SDS011;54486;51.442;6.778;2023-03-01T18:08:11;13.85;;;7.18;;
67696;SDS011;54486;51.442;6.778;2023-03-01T18:10:38;13.80;;;7.03;;
67696;SDS011;54486;51.442;6.778;2023-03-01T18:13:06;13.73;;;7.00;;
67696;SDS011;54486;51.442;6.778;2023-03-01T18:15:33;12.95;;;7.15;;
67696;SDS011;54486;51.442;6.778;2023-03-01T18:18:00;13.95;;;7.03;;
67696;SDS011;54486;51.442;6.778;2023-03-01T18:20:27;13.97;;;7.20;;
67696;SDS011;54486;51.442;6.778;2023-03-01T18:22:56;14.02;;;7.85;;
67696;SDS011;54486;51.442;6.778;2023-03-01T18:25:23;13.18;;;7.00;;
67696;SDS011;54486;51.442;6.778;2023-03-01T18:27:50;14.30;;;7.60;;
67696;SDS011;54486;51.442;6.778;2023-03-01T18:30:17;13.93;;;6.72;;
67696;SDS011;54486;51.442;6.778;2023-03-01T18:32:44;13.17;;;7.33;;
67696;SDS011;54486;51.442;6.778;2023-03-01T18:35:12;14.45;;;7.45;;
67696;SDS011;54486;51.442;6.778;2023-03-01T18:37:40;14.45;;;7.97;;
67696;SDS011;54486;51.442;6.778;2023-03-01T18:40:08;14.10;;;7.93;;
67696;SDS011;54486;51.442;6.778;2023-03-01T18:42:35;14.13;;;8.23;;
67696;SDS011;54486;51.442;6.778;2023-03-01T18:45:02;14.02;;;7.63;;
67696;SDS011;54486;51.442;6.778;2023-03-01T18:47:30;15.00;;;8.75;;
67696;SDS011;54486;51.442;6.778;2023-03-01T18:49:57;14.05;;;8.13;;
67696;SDS011;54486;51.442;6.778;2023-03-01T18:52:25;15.23;;;8.10;;
67696;SDS011;54486;51.442;6.778;2023-03-01T18:54:52;15.00;;;8.85;;
67696;SDS011;54486;51.442;6.778;2023-03-01T18:57:20;18.05;;;9.27;;
67696;SDS011;54486;51.442;6.778;2023-03-01T18:59:47;18.58;;;10.43;;
67696;SDS011;54486;51.442;6.778;2023-03-01T19:02:14;16.77;;;9.63;;
67696;SDS011;54486;51.442;6.778;2023-03-01T19:04:41;16.15;;;8.35;;
67696;SDS011;54486;51.442;6.778;2023-03-01T19:07:08;16.27;;;8.88;;
67696;SDS011;54486;51.442;6.778;2023-03-01T19:09:35;17.38;;;9.02;;
67696;SDS011;54486;51.442;6.778;2023-03-01T19:12:02;15.07;;;8.67;;
67696;SDS011;54486;51.442;6.778;2023-03-01T19:14:31;15.77;;;8.75;;
67696;SDS011;54486;51.442;6.778;2023-03-01T19:17:00;14.85;;;8.43;;
67696;SDS011;54486;51.442;6.778;2023-03-01T19:19:28;16.10;;;8.75;;
67696;SDS011;54486;51.442;6.778;2023-03-01T19:21:55;14.82;;;9.18;;
67696;SDS011;54486;51.442;6.778;2023-03-01T19:24:31;16.05;;;8.93;;
67696;SDS011;54486;51.442;6.778;2023-03-01T19:26:58;17.70;;;9.65;;
67696;SDS011;54486;51.442;6.778;2023-03-01T19:29:26;18.33;;;10.20;;
67696;SDS011;54486;51.442;6.778;2023-03-01T19:31:53;17.65;;;10.40;;
67696;SDS011;54486;51.442;6.778;2023-03-01T19:34:21;16.52;;;9.57;;
67696;SDS011;54486;51.442;6.778;2023-03-01T19:36:50;15.67;;;9.03;;
67696;SDS011;54486;51.442;6.778;2023-03-01T19:39:18;15.77;;;8.98;;
67696;SDS011;54486;51.442;6.778;2023-03-01T19:41:45;16.33;;;8.55;;
67696;SDS011;54486;51.442;6.778;2023-03-01T19:44:15;15.15;;;8.02;;
67696;SDS011;54486;51.442;6.778;2023-03-01T19:46:42;13.82;;;7.60;;
67696;SDS011;54486;51.442;6.778;2023-03-01T19:49:10;15.82;;;8.45;;
67696;SDS011;54486;51.442;6.778;2023-03-01T19:51:38;15.40;;;8.48;;
67696;SDS011;54486;51.442;6.778;2023-03-01T19:54:06;15.23;;;8.07;;
67696;SDS011;54486;51.442;6.778;2023-03-01T19:56:35;14.15;;;7.95;;
67696;SDS011;54486;51.442;6.778;2023-03-01T19:59:03;13.90;;;8.00;;
67696;SDS011;54486;51.442;6.778;2023-03-01T20:01:32;15.57;;;8.55;;
67696;SDS011;54486;51.442;6.778;2023-03-01T20:04:00;13.77;;;7.47;;
67696;SDS011;54486;51.442;6.778;2023-03-01T20:06:28;14.43;;;7.80;;
67696;SDS011;54486;51.442;6.778;2023-03-01T20:08:58;15.85;;;7.10;;
67696;SDS011;54486;51.442;6.778;2023-03-01T20:11:41;13.23;;;8.07;;
67696;SDS011;54486;51.442;6.778;2023-03-01T20:31:23;14.52;;;7.70;;
67696;SDS011;54486;51.442;6.778;2023-03-01T20:33:56;13.85;;;6.82;;
67696;SDS011;54486;51.442;6.778;2023-03-01T20:43:47;12.90;;;7.13;;
67696;SDS011;54486;51.442;6.778;2023-03-01T20:46:21;13.20;;;6.93;;
67696;SDS011;54486;51.442;6.778;2023-03-01T20:48:50;15.85;;;7.32;;
67696;SDS011;54486;51.442;6.778;2023-03-01T20:51:18;13.25;;;7.38;;
67696;SDS011;54486;51.442;6.778;2023-03-01T20:53:45;14.10;;;7.23;;
67696;SDS011;54486;51.442;6.778;2023-03-01T20:56:13;12.88;;;6.97;;
67696;SDS011;54486;51.442;6.778;2023-03-01T20:58:41;12.40;;;6.63;;
67696;SDS011;54486;51.442;6.778;2023-03-01T21:01:10;12.45;;;6.57;;
67696;SDS011;54486;51.442;6.778;2023-03-01T21:03:42;12.23;;;7.10;;
67696;SDS011;54486;51.442;6.778;2023-03-01T21:06:10;13.77;;;7.43;;
67696;SDS011;54486;51.442;6.778;2023-03-01T21:08:37;12.67;;;6.73;;
67696;SDS011;54486;51.442;6.778;2023-03-01T21:11:05;13.45;;;7.38;;
67696;SDS011;54486;51.442;6.778;2023-03-01T21:13:33;14.75;;;7.53;;
67696;SDS011;54486;51.442;6.778;2023-03-01T21:16:04;13.93;;;7.22;;
67696;SDS011;54486;51.442;6.778;2023-03-01T21:18:33;13.88;;;7.22;;
67696;SDS011;54486;51.442;6.778;2023-03-01T21:21:07;14.82;;;8.13;;
67696;SDS011;54486;51.442;6.778;2023-03-01T21:23:37;13.65;;;8.10;;
67696;SDS011;54486;51.442;6.778;2023-03-01T21:26:07;13.32;;;6.78;;
67696;SDS011;54486;51.442;6.778;2023-03-01T21:28:41;14.07;;;7.68;;
67696;SDS011;54486;51.442;6.778;2023-03-01T21:31:17;11.75;;;6.57;;
67696;SDS011;54486;51.442;6.778;2023-03-01T21:33:47;12.85;;;7.05;;
67696;SDS011;54486;51.442;6.778;2023-03-01T21:36:17;12.98;;;7.00;;
67696;SDS011;54486;51.442;6.778;2023-03-01T21:38:45;14.38;;;7.03;;
67696;SDS011;54486;51.442;6.778;2023-03-01T21:41:14;13.85;;;7.38;;
67696;SDS011;54486;51.442;6.778;2023-03-01T21:43:44;13.90;;;7.73;;
67696;SDS011;54486;51.442;6.778;2023-03-01T21:46:16;12.80;;;6.95;;
67696;SDS011;54486;51.442;6.778;2023-03-01T21:48:49;13.38;;;7.53;;
67696;SDS011;54486;51.442;6.778;2023-03-01T21:51:19;13.88;;;7.03;;
67696;SDS011;54486;51.442;6.778;2023-03-01T21:53:48;13.57;;;6.93;;
67696;SDS011;54486;51.442;6.778;2023-03-01T21:56:20;12.05;;;6.28;;
67696;SDS011;54486;51.442;6.778;2023-03-01T21:58:48;13.70;;;7.53;;
67696;SDS011;54486;51.442;6.778;2023-03-01T22:01:17;13.88;;;7.00;;
67696;SDS011;54486;51.442;6.778;2023-03-01T22:03:47;12.40;;;6.25;;
67696;SDS011;54486;51.442;6.778;2023-03-01T22:06:15;13.20;;;7.05;;
67696;SDS011;54486;51.442;6.778;2023-03-01T22:09:17;13.73;;;7.10;;
67696;SDS011;54486;51.442;6.778;2023-03-01T22:11:50;14.70;;;7.18;;
67696;SDS011;54486;51.442;6.778;2023-03-01T22:14:28;13.30;;;6.40;;
67696;SDS011;54486;51.442;6.778;2023-03-01T22:16:57;13.80;;;7.00;;
67696;SDS011;54486;51.442;6.778;2023-03-01T22:19:24;13.85;;;7.40;;
67696;SDS011;54486;51.442;6.778;2023-03-01T22:21:54;14.13;;;7.03;;
67696;SDS011;54486;51.442;6.778;2023-03-01T22:24:22;14.10;;;7.37;;
67696;SDS011;54486;51.442;6.778;2023-03-01T22:26:50;12.75;;;6.90;;
67696;SDS011;54486;51.442;6.778;2023-03-01T22:29:22;12.40;;;6.30;;
67696;SDS011;54486;51.442;6.778;2023-03-01T22:31:52;13.50;;;6.90;;
67696;SDS011;54486;51.442;6.778;2023-03-01T22:34:20;13.07;;;6.47;;
67696;SDS011;54486;51.442;6.778;2023-03-01T22:36:47;14.57;;;7.03;;
67696;SDS011;54486;51.442;6.778;2023-03-01T22:39:16;13.50;;;6.73;;
67696;SDS011;54486;51.442;6.778;2023-03-01T22:41:46;13.63;;;6.97;;
67696;SDS011;54486;51.442;6.778;2023-03-01T22:44:15;12.82;;;6.82;;
67696;SDS011;54486;51.442;6.778;2023-03-01T22:46:45;13.38;;;7.45;;
67696;SDS011;54486;51.442;6.778;2023-03-01T22:49:13;13.27;;;6.90;;
67696;SDS011;54486;51.442;6.778;2023-03-01T22:51:43;13.13;;;7.03;;
67696;SDS011;54486;51.442;6.778;2023-03-01T22:54:14;14.03;;;7.90;;
67696;SDS011;54486;51.442;6.778;2023-03-01T22:56:42;14.30;;;7.43;;
67696;SDS011;54486;51.442;6.778;2023-03-01T22:59:10;12.90;;;7.25;;
67696;SDS011;54486;51.442;6.778;2023-03-01T23:01:39;12.48;;;7.15;;
67696;SDS011;54486;51.442;6.778;2023-03-01T23:04:13;13.75;;;7.03;;
67696;SDS011;54486;51.442;6.778;2023-03-01T23:06:41;13.52;;;7.57;;
67696;SDS011;54486;51.442;6.778;2023-03-01T23:11:50;12.55;;;7.05;;
67696;SDS011;54486;51.442;6.778;2023-03-01T23:14:18;12.68;;;6.55;;
67696;SDS011;54486;51.442;6.778;2023-03-01T23:16:48;12.93;;;6.55;;
67696;SDS011;54486;51.442;6.778;2023-03-01T23:19:17;13.98;;;7.47;;
67696;SDS011;54486;51.442;6.778;2023-03-01T23:21:44;12.65;;;7.30;;
67696;SDS011;54486;51.442;6.778;2023-03-01T23:24:16;13.68;;;7.40;;
67696;SDS011;54486;51.442;6.778;2023-03-01T23:26:44;13.25;;;6.82;;
67696;SDS011;54486;51.442;6.778;2023-03-01T23:29:11;14.02;;;7.18;;
67696;SDS011;54486;51.442;6.778;2023-03-01T23:31:38;14.00;;;6.70;;
67696;SDS011;54486;51.442;6.778;2023-03-01T23:34:06;12.43;;;6.95;;
67696;SDS011;54486;51.442;6.778;2023-03-01T23:36:34;13.50;;;7.07;;
67696;SDS011;54486;51.442;6.778;2023-03-01T23:39:02;13.75;;;7.40;;
67696;SDS011;54486;51.442;6.778;2023-03-01T23:41:34;13.27;;;7.40;;
67696;SDS011;54486;51.442;6.778;2023-03-01T23:44:02;12.85;;;6.68;;
67696;SDS011;54486;51.442;6.778;2023-03-01T23:46:32;12.82;;;6.90;;
67696;SDS011;54486;51.442;6.778;2023-03-01T23:49:01;13.40;;;7.00;;
67696;SDS011;54486;51.442;6.778;2023-03-01T23:51:29;12.70;;;7.45;;
67696;SDS011;54486;51.442;6.778;2023-03-01T23:53:58;13.27;;;6.97;;
67696;SDS011;54486;51.442;6.778;2023-03-01T23:56:28;12.07;;;6.50;;
67696;SDS011;54486;51.442;6.778;2023-03-01T23:59:02;12.80;;;7.13;;
